Time;durP1;ratioP1;P1;durP2;ratioP2;P2;SDS_P1;SDS_P2;PMS_P1;PMS_P2;Temp;Humidity;BMP_temperature;BMP_pressure;BME280_temperature;BME280_humidity;BME280_pressure;Samples;Min_cycle;Max_cycle;Signal;HPM_P1;HPM_P2
2021/07/17 00:00:07;;;;;;;34.17;10.40;;;;;;;19.56;74.47;102506.91;4813042;29;20428;-36
2021/07/17 00:02:33;;;;;;;29.98;9.73;;;;;;;19.58;74.39;102514.69;4812833;29;20098;-36
2021/07/17 00:05:00;;;;;;;33.55;9.55;;;;;;;20.01;72.33;102511.91;4810062;29;20117;-36
2021/07/17 00:07:27;;;;;;;32.67;10.57;;;;;;;19.61;73.38;102517.06;4812507;29;20473;-36
2021/07/17 00:09:53;;;;;;;35.03;11.30;;;;;;;19.31;75.05;102519.34;4817915;29;20058;-35
2021/07/17 00:12:20;;;;;;;35.45;10.45;;;;;;;19.23;76.05;102523.78;4809345;29;20578;-36
2021/07/17 00:14:46;;;;;;;31.73;10.85;;;;;;;19.31;75.34;102516.69;4814902;29;20535;-36
2021/07/17 00:17:13;;;;;;;33.63;9.43;;;;;;;19.77;73.97;102512.78;4817388;29;20085;-37
2021/07/17 00:19:40;;;;;;;32.40;9.82;;;;;;;19.66;73.31;102513.88;4818951;29;20064;-37
2021/07/17 00:22:07;;;;;;;27.73;8.77;;;;;;;19.41;74.58;102516.53;4821992;29;20061;-36
2021/07/17 00:24:34;;;;;;;32.25;10.40;;;;;;;19.79;72.99;102513.44;4816982;29;20383;-37
2021/07/17 00:27:00;;;;;;;33.00;9.93;;;;;;;19.38;73.68;102510.69;4827263;29;20058;-37
2021/07/17 00:29:27;;;;;;;31.58;10.15;;;;;;;19.37;73.94;102517.84;4822847;29;20061;-37
2021/07/17 00:31:54;;;;;;;31.00;9.88;;;;;;;19.27;75.00;102517.19;4825494;29;20162;-37
2021/07/17 00:34:21;;;;;;;;;;;;;;;19.59;73.92;102515.56;4813262;29;20050;-37
2021/07/17 00:36:48;;;;;;;31.55;10.15;;;;;;;19.71;73.49;102515.09;4819015;29;20015;-37
2021/07/17 00:39:14;;;;;;;34.00;9.90;;;;;;;19.32;74.88;102522.81;4815019;29;20064;-37
2021/07/17 00:41:41;;;;;;;36.35;10.05;;;;;;;19.81;73.08;102514.09;4808322;29;20137;-37
2021/07/17 00:44:08;;;;;;;30.48;10.10;;;;;;;19.88;72.17;102515.94;4818851;29;20071;-37
2021/07/17 00:46:35;;;;;;;33.55;10.40;;;;;;;19.31;74.15;102511.34;4815513;29;20554;-37
2021/07/17 00:49:02;;;;;;;32.55;10.15;;;;;;;19.19;74.91;102503.84;4824192;29;20114;-37
2021/07/17 00:51:28;;;;;;;29.05;10.23;;;;;;;19.20;74.99;102510.81;4809438;29;20069;-37
2021/07/17 00:53:55;;;;;;;32.60;10.15;;;;;;;18.98;75.68;102513.09;4811653;29;20058;-37
2021/07/17 00:56:25;;;;;;;27.38;9.93;;;;;;;18.98;76.26;102515.75;4815176;29;20780;-37
2021/07/17 00:58:58;;;;;;;32.20;10.82;;;;;;;19.20;75.82;102509.00;4812070;29;20463;-37
2021/07/17 01:01:27;;;;;;;33.83;10.82;;;;;;;18.92;76.02;102503.94;4817068;29;20534;-37
2021/07/17 01:03:55;;;;;;;37.67;10.75;;;;;;;18.93;75.91;102510.06;4811072;29;20064;-37
2021/07/17 01:06:22;;;;;;;29.90;9.77;;;;;;;18.81;76.33;102512.19;4813328;29;20059;-37
2021/07/17 01:08:48;;;;;;;37.53;10.23;;;;;;;18.77;77.41;102508.16;4807247;29;20058;-37
2021/07/17 01:11:15;;;;;;;31.83;9.90;;;;;;;18.65;77.11;102517.41;4816336;29;20146;-37
2021/07/17 01:13:41;;;;;;;33.25;10.25;;;;;;;18.82;76.40;102516.53;4809592;29;20050;-37
2021/07/17 01:16:08;;;;;;;35.33;10.77;;;;;;;19.06;75.82;102517.59;4816461;29;20149;-37
2021/07/17 01:18:34;;;;;;;28.02;9.63;;;;;;;18.89;75.92;102514.88;4817444;29;20101;-37
2021/07/17 01:21:03;;;;;;;30.10;10.13;;;;;;;19.17;75.04;102517.31;4810536;29;20157;-37
2021/07/17 01:23:29;;;;;;;33.60;10.60;;;;;;;19.11;74.90;102523.25;4820130;29;20303;-37
2021/07/17 01:25:56;;;;;;;32.92;10.18;;;;;;;19.08;75.25;102513.78;4810479;29;20896;-37
2021/07/17 01:28:23;;;;;;;31.10;9.75;;;;;;;18.94;75.88;102520.56;4816698;29;20455;-37
2021/07/17 01:30:49;;;;;;;40.63;9.98;;;;;;;19.21;74.50;102529.28;4810001;29;20502;-37
2021/07/17 01:33:16;;;;;;;35.05;9.95;;;;;;;19.26;73.93;102524.31;4811568;29;20058;-37
2021/07/17 01:35:43;;;;;;;28.83;9.73;;;;;;;19.41;72.92;102523.69;4808223;29;20149;-37
2021/07/17 01:38:10;;;;;;;34.53;10.07;;;;;;;19.25;73.09;102520.00;4805018;29;20064;-37
2021/07/17 01:40:36;;;;;;;28.90;9.50;;;;;;;18.89;74.86;102528.16;4811819;29;20414;-37
2021/07/17 01:43:03;;;;;;;30.88;9.63;;;;;;;18.72;75.29;102526.41;4808808;29;20200;-37
2021/07/17 01:45:36;;;;;;;27.38;10.13;;;;;;;19.13;73.71;102523.94;4821924;29;20058;-37
2021/07/17 01:48:07;;;;;;;28.85;10.10;;;;;;;19.18;73.18;102503.00;4813952;29;20193;-37
2021/07/17 01:50:36;;;;;;;30.80;10.07;;;;;;;18.99;74.40;102512.09;4827673;29;20145;-37
2021/07/17 01:53:04;;;;;;;26.25;9.85;;;;;;;18.88;74.43;102513.22;4810176;29;20137;-37
2021/07/17 01:55:31;;;;;;;27.88;9.55;;;;;;;18.92;73.96;102511.06;4816687;29;20064;-37
2021/07/17 01:57:58;;;;;;;33.28;11.02;;;;;;;18.75;74.99;102505.66;4812660;29;20902;-37
2021/07/17 02:00:25;;;;;;;37.15;10.85;;;;;;;18.66;75.72;102508.41;4811005;29;20129;-37
2021/07/17 02:02:52;;;;;;;28.30;10.38;;;;;;;18.76;74.51;102509.16;4816912;29;20062;-37
2021/07/17 02:05:20;;;;;;;27.48;9.63;;;;;;;18.59;75.64;102516.22;4811031;29;20054;-37
2021/07/17 02:07:46;;;;;;;24.55;9.90;;;;;;;18.42;76.62;102509.13;4816683;29;20549;-36
2021/07/17 02:10:19;;;;;;;29.77;9.45;;;;;;;18.55;76.56;102504.22;4809810;29;20137;-37
2021/07/17 02:13:05;;;;;;;32.17;9.70;;;;;;;18.40;76.56;102514.59;4809527;29;20162;-37
2021/07/17 02:15:41;;;;;;;34.60;10.27;;;;;;;18.26;77.06;102509.88;4808245;29;20052;-37
2021/07/17 02:18:08;;;;;;;31.80;10.02;;;;;;;18.17;78.03;102499.19;4815872;29;20234;-37
2021/07/17 02:20:35;;;;;;;34.97;9.60;;;;;;;18.38;77.64;102505.97;4815442;29;20311;-37
2021/07/17 02:23:02;;;;;;;28.35;9.50;;;;;;;18.45;76.88;102514.97;4810366;29;20181;-37
2021/07/17 02:25:29;;;;;;;35.50;10.20;;;;;;;18.36;77.14;102502.63;4811482;29;20156;-37
2021/07/17 02:27:56;;;;;;;32.20;9.57;;;;;;;18.49;77.18;102513.66;4810631;29;20053;-37
2021/07/17 02:30:23;;;;;;;35.35;10.48;;;;;;;18.82;75.61;102502.38;4819240;29;20076;-37
2021/07/17 02:32:49;;;;;;;29.63;10.38;;;;;;;18.63;75.68;102498.94;4811649;29;20165;-37
2021/07/17 02:35:15;;;;;;;39.58;10.48;;;;;;;18.53;76.27;102508.88;4828673;29;20137;-37
2021/07/17 02:37:42;;;;;;;31.08;11.27;;;;;;;18.67;75.92;102516.25;4809605;29;20141;-37
2021/07/17 02:40:09;;;;;;;30.45;10.20;;;;;;;18.61;76.20;102514.22;4810019;29;20137;-37
2021/07/17 02:42:35;;;;;;;35.25;9.77;;;;;;;18.54;76.40;102521.16;4813131;29;20114;-37
2021/07/17 02:45:05;;;;;;;28.95;9.88;;;;;;;18.73;75.78;102512.13;4821331;29;20144;-37
2021/07/17 02:47:32;;;;;;;35.95;10.50;;;;;;;18.61;76.50;102516.06;4816649;29;20117;-37
2021/07/17 02:49:58;;;;;;;35.95;9.90;;;;;;;18.78;75.52;102507.16;4809536;29;20066;-37
2021/07/17 02:52:25;;;;;;;34.88;10.20;;;;;;;18.48;76.97;102503.19;4811793;29;20068;-37
2021/07/17 02:54:52;;;;;;;34.95;10.68;;;;;;;18.46;77.53;102507.81;4806142;29;20086;-37
2021/07/17 02:57:18;;;;;;;31.30;10.45;;;;;;;18.51;76.25;102500.22;4815527;29;20142;-37
2021/07/17 02:59:44;;;;;;;36.38;10.32;;;;;;;18.23;78.47;102511.03;4814711;29;20578;-36
2021/07/17 03:02:11;;;;;;;35.53;10.02;;;;;;;18.06;79.21;102506.59;4821209;29;20058;-36
2021/07/17 03:04:37;;;;;;;32.90;10.65;;;;;;;18.38;78.58;102508.63;4816372;29;20062;-37
2021/07/17 03:07:04;;;;;;;40.00;10.57;;;;;;;18.14;79.31;102511.94;4806104;29;20059;-37
2021/07/17 03:09:30;;;;;;;31.98;10.05;;;;;;;18.12;78.68;102516.59;4810201;29;20054;-37
2021/07/17 03:11:57;;;;;;;36.67;10.70;;;;;;;18.37;78.30;102510.44;4807993;29;20148;-36
2021/07/17 03:14:24;;;;;;;33.90;10.68;;;;;;;18.11;79.04;102517.56;4816821;29;20062;-36
2021/07/17 03:16:51;;;;;;;34.13;9.75;;;;;;;18.42;77.31;102525.06;4826527;29;20065;-36
2021/07/17 03:19:17;;;;;;;39.05;10.25;;;;;;;18.16;78.25;102510.78;4809057;29;20054;-36
2021/07/17 03:21:43;;;;;;;36.80;10.35;;;;;;;18.32;78.60;102515.38;4801096;29;20237;-36
2021/07/17 03:24:10;;;;;;;34.00;9.98;;;;;;;18.52;77.62;102521.34;4815255;29;20157;-36
2021/07/17 03:26:36;;;;;;;42.22;10.95;;;;;;;18.27;77.96;102519.50;4815079;29;20149;-36
2021/07/17 03:29:03;;;;;;;32.33;11.00;;;;;;;18.55;77.17;102509.53;4808126;29;20149;-36
2021/07/17 03:31:31;;;;;;;31.63;10.40;;;;;;;18.20;78.28;102511.31;4813686;29;20165;-36
2021/07/17 03:33:58;;;;;;;;;;;;;;;18.14;79.07;102506.63;4806491;29;20172;-36
2021/07/17 03:36:25;;;;;;;28.08;9.80;;;;;;;18.17;79.11;102504.50;4810866;29;20011;-36
2021/07/17 03:38:52;;;;;;;34.20;10.57;;;;;;;17.88;80.21;102509.28;4815349;29;20145;-37
2021/07/17 03:41:19;;;;;;;32.20;10.32;;;;;;;17.77;80.92;102508.47;4801846;29;20121;-37
2021/07/17 03:43:47;;;;;;;33.25;9.30;;;;;;;17.93;80.89;102517.59;4815011;29;20667;-37
2021/07/17 03:46:13;;;;;;;36.13;10.13;;;;;;;18.12;79.79;102512.09;4807101;29;20084;-37
2021/07/17 03:48:40;;;;;;;40.47;10.35;;;;;;;18.15;79.07;102514.47;4808987;29;20305;-37
2021/07/17 03:51:06;;;;;;;37.22;10.40;;;;;;;18.21;78.23;102514.81;4805371;29;21019;-37
2021/07/17 03:53:33;;;;;;;32.85;10.10;;;;;;;18.15;78.96;102511.81;4815080;29;20482;-37
2021/07/17 03:55:59;;;;;;;39.83;10.63;;;;;;;18.34;78.21;102515.22;4814235;29;20058;-37
2021/07/17 03:58:26;;;;;;;38.78;10.57;;;;;;;18.37;77.91;102515.75;4809021;29;20062;-36
2021/07/17 04:00:52;;;;;;;34.53;10.15;;;;;;;18.43;77.70;102516.13;4810593;29;20054;-36
2021/07/17 04:03:19;;;;;;;31.45;9.52;;;;;;;17.97;78.96;102508.34;4805161;29;20081;-36
2021/07/17 04:05:46;;;;;;;33.53;9.18;;;;;;;17.78;80.67;102515.47;4812953;29;20065;-36
2021/07/17 04:08:12;;;;;;;38.28;9.85;;;;;;;17.87;80.77;102511.06;4815259;29;20591;-37
2021/07/17 04:10:38;;;;;;;40.22;10.80;;;;;;;18.12;79.31;102503.31;4814232;29;20089;-36
2021/07/17 04:13:05;;;;;;;36.03;9.93;;;;;;;17.98;79.58;102505.53;4813820;29;20173;-36
2021/07/17 04:15:32;;;;;;;36.45;9.85;;;;;;;18.23;78.75;102513.69;4805420;29;20086;-36
2021/07/17 04:17:59;;;;;;;28.77;9.43;;;;;;;17.88;79.62;102514.59;4810864;29;20058;-36
2021/07/17 04:20:25;;;;;;;40.50;9.52;;;;;;;17.56;81.35;102516.75;4809464;29;20583;-36
2021/07/17 04:22:52;;;;;;;38.25;9.38;;;;;;;17.48;82.31;102521.13;4815220;29;20512;-36
2021/07/17 04:25:18;;;;;;;33.08;10.20;;;;;;;17.42;82.97;102511.97;4811678;29;20520;-36
2021/07/17 04:27:45;;;;;;;35.92;9.68;;;;;;;17.32;83.81;102516.50;4818153;29;20064;-36
2021/07/17 04:30:12;;;;;;;27.70;9.32;;;;;;;17.46;82.64;102520.47;4804951;29;20491;-36
2021/07/17 04:32:39;;;;;;;34.22;9.23;;;;;;;17.41;83.08;102520.09;4816841;29;20058;-36
2021/07/17 04:35:06;;;;;;;36.53;10.30;;;;;;;17.56;83.10;102522.06;4817790;29;20050;-36
2021/07/17 04:37:33;;;;;;;31.65;10.23;;;;;;;17.72;82.35;102517.88;4812377;29;20082;-37
2021/07/17 04:40:00;;;;;;;29.73;9.13;;;;;;;17.65;81.66;102516.84;4818025;29;20161;-37
2021/07/17 04:42:27;;;;;;;35.10;10.85;;;;;;;17.89;81.35;102521.53;4810733;29;20101;-37
2021/07/17 04:44:53;;;;;;;29.95;9.32;;;;;;;17.79;80.65;102518.94;4817581;29;20145;-37
2021/07/17 04:47:20;;;;;;;36.30;10.18;;;;;;;17.92;80.90;102514.13;4812280;29;20582;-36
2021/07/17 04:49:46;;;;;;;33.78;9.20;;;;;;;17.54;82.50;102509.91;4822885;29;20497;-36
2021/07/17 04:52:14;;;;;;;41.15;10.75;;;;;;;17.57;83.32;102507.81;4816570;29;20099;-36
2021/07/17 04:54:40;;;;;;;36.88;9.80;;;;;;;17.49;82.91;102514.84;4809438;29;20061;-36
2021/07/17 04:57:07;;;;;;;35.80;9.90;;;;;;;17.64;82.87;102513.34;4824121;29;20061;-36
2021/07/17 04:59:33;;;;;;;27.42;9.38;;;;;;;17.68;82.19;102512.06;4809930;29;20924;-36
2021/07/17 05:01:59;;;;;;;36.50;10.00;;;;;;;17.74;82.19;102511.44;4816691;29;20060;-37
2021/07/17 05:04:27;;;;;;;39.07;9.87;;;;;;;17.36;84.28;102517.88;4810857;29;20058;-36
2021/07/17 05:06:53;;;;;;;36.63;9.02;;;;;;;17.28;84.68;102512.47;4813811;29;20570;-36
2021/07/17 05:09:20;;;;;;;29.10;9.88;;;;;;;17.59;83.07;102516.44;4807114;29;20137;-36
2021/07/17 05:11:46;;;;;;;33.17;8.88;;;;;;;17.83;81.91;102519.47;4815301;29;20068;-36
2021/07/17 05:14:13;;;;;;;28.90;9.27;;;;;;;17.92;81.38;102518.59;4816550;29;20065;-36
2021/07/17 05:16:40;;;;;;;28.20;9.00;;;;;;;18.01;80.81;102525.63;4811181;29;21691;-36
2021/07/17 05:19:06;;;;;;;27.02;9.55;;;;;;;18.08;80.92;102525.84;4816890;29;20058;-36
2021/07/17 05:21:33;;;;;;;28.73;8.30;;;;;;;18.12;80.21;102519.25;4803864;29;20133;-37
2021/07/17 05:23:59;;;;;;;25.70;8.32;;;;;;;18.13;80.46;102524.41;4815675;29;20142;-37
2021/07/17 05:26:26;;;;;;;22.63;7.68;;;;;;;18.21;79.90;102528.94;4811527;29;20614;-37
2021/07/17 05:28:52;;;;;;;28.08;8.05;;;;;;;18.25;79.59;102530.28;4815905;29;20471;-37
2021/07/17 05:31:19;;;;;;;29.33;8.32;;;;;;;18.34;79.16;102528.50;4811615;29;20067;-37
2021/07/17 05:33:46;;;;;;;29.60;8.52;;;;;;;18.33;79.30;102540.97;4814256;29;20062;-37
2021/07/17 05:36:12;;;;;;;38.17;8.73;;;;;;;18.32;79.62;102539.28;4816550;29;20054;-37
2021/07/17 05:38:39;;;;;;;20.95;7.32;;;;;;;18.30;79.44;102529.81;4810420;29;20215;-37
2021/07/17 05:41:05;;;;;;;30.77;8.32;;;;;;;18.38;79.52;102541.34;4819299;29;20543;-37
2021/07/17 05:43:31;;;;;;;37.30;9.13;;;;;;;18.40;79.04;102541.16;4809962;29;20057;-37
2021/07/17 05:45:58;;;;;;;30.98;9.07;;;;;;;18.45;79.03;102538.88;4811621;29;20161;-37
2021/07/17 05:48:24;;;;;;;25.13;7.93;;;;;;;18.45;78.75;102535.41;4814660;29;20966;-37
2021/07/17 05:50:51;;;;;;;28.38;9.18;;;;;;;18.50;79.18;102543.72;4815334;29;20161;-37
2021/07/17 05:53:17;;;;;;;23.88;7.68;;;;;;;18.52;79.34;102545.25;4822229;29;20141;-37
2021/07/17 05:55:44;;;;;;;27.27;7.95;;;;;;;18.54;79.42;102539.75;4810844;29;20081;-36
2021/07/17 05:58:10;;;;;;;23.60;8.70;;;;;;;18.55;79.74;102552.06;4812148;29;20126;-36
2021/07/17 06:00:38;;;;;;;35.50;9.10;;;;;;;18.55;79.39;102544.91;4806792;29;20082;-36
2021/07/17 06:03:04;;;;;;;23.10;7.82;;;;;;;18.55;79.77;102549.41;4815306;29;20054;-36
2021/07/17 06:05:31;;;;;;;24.20;7.45;;;;;;;18.63;79.71;102546.78;4810642;29;20257;-36
2021/07/17 06:07:57;;;;;;;31.52;9.15;;;;;;;18.69;79.44;102548.00;4815556;29;20161;-36
2021/07/17 06:10:24;;;;;;;28.45;8.23;;;;;;;18.73;79.98;102552.81;4812688;29;20050;-36
2021/07/17 06:12:51;;;;;;;26.35;7.70;;;;;;;18.78;79.21;102560.34;4803407;29;20836;-36
2021/07/17 06:15:18;;;;;;;23.85;7.90;;;;;;;18.85;79.27;102547.25;4815315;29;20200;-36
2021/07/17 06:17:44;;;;;;;22.17;7.43;;;;;;;18.88;79.26;102554.94;4811773;29;20086;-37
2021/07/17 06:20:11;;;;;;;31.45;8.02;;;;;;;19.00;78.88;102566.13;4815708;29;20093;-37
2021/07/17 06:22:38;;;;;;;22.65;7.05;;;;;;;19.05;78.61;102567.31;4815958;29;20082;-37
2021/07/17 06:25:05;;;;;;;19.95;6.53;;;;;;;19.10;78.29;102574.81;4813161;29;20082;-37
2021/07/17 06:27:32;;;;;;;18.92;6.80;;;;;;;19.12;78.26;102570.16;4810806;29;20470;-37
2021/07/17 06:29:58;;;;;;;18.40;5.65;;;;;;;19.24;77.85;102568.03;4814372;29;20093;-37
2021/07/17 06:32:25;;;;;;;18.52;6.70;;;;;;;19.26;78.00;102568.69;4808652;29;20469;-37
2021/07/17 06:34:51;;;;;;;17.08;6.18;;;;;;;19.30;77.61;102565.53;4811627;29;20165;-37
2021/07/17 06:37:18;;;;;;;20.35;6.25;;;;;;;19.37;77.09;102576.41;4817108;29;21234;-37
2021/07/17 06:39:44;;;;;;;22.70;6.55;;;;;;;19.35;76.93;102571.22;4807676;29;20089;-37
2021/07/17 06:42:11;;;;;;;14.73;5.78;;;;;;;19.22;78.53;102572.69;4815245;29;20551;-37
2021/07/17 06:44:37;;;;;;;18.83;5.90;;;;;;;19.52;77.32;102577.44;4809585;29;20116;-37
2021/07/17 06:47:04;;;;;;;21.52;6.53;;;;;;;19.47;77.30;102581.56;4815418;29;20141;-37
2021/07/17 06:49:30;;;;;;;21.15;7.25;;;;;;;19.29;78.24;102598.47;4808756;29;20085;-37
2021/07/17 06:51:57;;;;;;;21.00;7.22;;;;;;;19.28;78.08;102590.66;4808970;29;20148;-37
2021/07/17 06:54:24;;;;;;;16.45;6.13;;;;;;;19.60;76.01;102597.91;4813362;29;20137;-37
2021/07/17 06:56:50;;;;;;;19.92;6.07;;;;;;;19.42;76.05;102583.88;4809958;29;20070;-37
2021/07/17 06:59:17;;;;;;;19.50;6.18;;;;;;;19.46;76.41;102594.03;4822762;29;20153;-37
2021/07/17 07:01:43;;;;;;;16.75;6.07;;;;;;;19.53;76.91;102600.38;4802396;29;20142;-37
2021/07/17 07:04:10;;;;;;;22.83;7.30;;;;;;;19.32;77.76;102595.47;4811980;29;20177;-37
2021/07/17 07:06:37;;;;;;;24.83;7.22;;;;;;;19.27;78.37;102595.16;4806231;29;20050;-37
2021/07/17 07:09:03;;;;;;;24.98;6.50;;;;;;;19.25;78.54;102599.81;4814930;29;20061;-37
2021/07/17 07:11:30;;;;;;;18.42;6.65;;;;;;;19.59;76.24;102600.72;4814751;29;20054;-37
2021/07/17 07:13:56;;;;;;;17.85;6.10;;;;;;;19.60;75.79;102611.22;4809517;29;20498;-37
2021/07/17 07:16:23;;;;;;;23.17;6.85;;;;;;;19.47;76.08;102608.19;4815944;29;20145;-37
2021/07/17 07:18:49;;;;;;;17.98;5.60;;;;;;;19.69;75.53;102610.22;4804936;29;20058;-37
2021/07/17 07:21:16;;;;;;;24.95;6.20;;;;;;;19.82;75.04;102609.78;4811378;29;20326;-37
2021/07/17 07:23:42;;;;;;;23.40;6.15;;;;;;;19.90;75.37;102609.81;4809195;29;20050;-37
2021/07/17 07:26:09;;;;;;;21.20;5.63;;;;;;;19.54;75.80;102610.03;4814755;29;20078;-37
2021/07/17 07:28:35;;;;;;;20.25;5.85;;;;;;;19.68;76.33;102610.38;4809104;29;20443;-37
2021/07/17 07:31:02;;;;;;;18.90;5.80;;;;;;;19.63;76.49;102610.06;4802185;29;20142;-37
2021/07/17 07:33:28;;;;;;;15.48;5.75;;;;;;;19.49;77.39;102616.84;4810549;29;20625;-37
2021/07/17 07:35:55;;;;;;;22.30;6.30;;;;;;;19.51;77.78;102618.34;4809318;29;20086;-37
2021/07/17 07:38:21;;;;;;;20.02;6.25;;;;;;;19.73;76.89;102614.25;4816090;29;20209;-37
2021/07/17 07:40:48;;;;;;;13.07;5.50;;;;;;;19.60;75.91;102615.69;4809375;29;20149;-37
2021/07/17 07:43:14;;;;;;;15.23;5.60;;;;;;;19.48;76.05;102618.69;4814120;29;20056;-37
2021/07/17 07:45:41;;;;;;;18.73;5.35;;;;;;;19.48;76.75;102617.81;4805520;29;20054;-37
2021/07/17 07:48:07;;;;;;;16.67;5.80;;;;;;;19.47;77.17;102613.50;4810975;29;20153;-37
2021/07/17 07:50:34;;;;;;;19.02;5.05;;;;;;;19.49;76.54;102614.19;4811596;29;20478;-37
2021/07/17 07:53:01;;;;;;;19.75;5.53;;;;;;;19.62;75.98;102611.03;4812005;29;20081;-37
2021/07/17 07:55:28;;;;;;;17.70;5.78;;;;;;;19.72;76.39;102614.44;4815815;29;20078;-37
2021/07/17 07:57:54;;;;;;;14.55;5.40;;;;;;;19.93;75.33;102613.94;4811041;29;20095;-37
2021/07/17 08:00:21;;;;;;;16.65;5.50;;;;;;;20.08;73.77;102604.31;4812782;29;20149;-37
2021/07/17 08:02:50;;;;;;;17.60;5.75;;;;;;;19.87;74.00;102606.63;4810467;29;20670;-37
2021/07/17 08:05:16;;;;;;;15.15;4.50;;;;;;;20.01;71.66;102613.13;4818320;29;20153;-37
2021/07/17 08:07:43;;;;;;;14.50;4.35;;;;;;;20.16;71.20;102608.81;4812314;29;20150;-37
2021/07/17 08:10:10;;;;;;;13.38;4.05;;;;;;;20.05;73.18;102611.78;4817106;29;20064;-37
2021/07/17 08:12:36;;;;;;;15.15;4.15;;;;;;;20.13;71.79;102617.97;4813114;29;20050;-37
2021/07/17 08:15:07;;;;;;;16.17;4.40;;;;;;;20.29;70.99;102609.16;4808479;29;20133;-37
2021/07/17 08:17:33;;;;;;;12.07;4.05;;;;;;;20.43;70.12;102601.47;4818358;29;20144;-37
2021/07/17 08:20:00;;;;;;;18.88;4.22;;;;;;;20.47;70.10;102605.47;4811843;29;20141;-37
2021/07/17 08:22:26;;;;;;;13.40;4.10;;;;;;;20.33;70.47;102601.66;4817486;29;20847;-37
2021/07/17 08:24:53;;;;;;;13.48;4.65;;;;;;;20.46;71.46;102603.78;4808246;29;20587;-37
2021/07/17 08:27:19;;;;;;;14.20;4.60;;;;;;;20.35;71.15;102597.00;4813222;29;20088;-37
2021/07/17 08:29:46;;;;;;;14.10;4.28;;;;;;;20.43;71.46;102602.31;4816185;29;20169;-37
2021/07/17 08:32:12;;;;;;;10.57;3.75;;;;;;;20.63;70.54;102608.13;4810708;29;20916;-37
2021/07/17 08:34:39;;;;;;;12.38;3.97;;;;;;;20.77;68.01;102595.94;4817854;29;20085;-37
2021/07/17 08:37:05;;;;;;;10.63;3.17;;;;;;;21.17;66.44;102599.47;4811765;29;20161;-37
2021/07/17 08:39:32;;;;;;;11.60;3.08;;;;;;;21.27;66.99;102604.59;4812976;29;20050;-37
2021/07/17 08:42:03;;;;;;;12.45;3.88;;;;;;;21.74;68.29;102598.34;4806250;29;20057;-37
2021/07/17 08:44:30;;;;;;;14.45;3.45;;;;;;;22.12;66.41;102603.72;4820915;29;20542;-37
2021/07/17 08:46:58;;;;;;;12.60;3.58;;;;;;;22.69;64.03;102599.69;4811001;29;20152;-37
2021/07/17 08:49:25;;;;;;;7.60;3.00;;;;;;;23.07;60.94;102602.28;4817159;29;20118;-37
2021/07/17 08:51:51;;;;;;;10.23;2.92;;;;;;;23.51;61.34;102612.09;4814611;29;20579;-37
2021/07/17 08:54:18;;;;;;;9.77;2.70;;;;;;;23.88;58.02;102607.56;4805481;29;20054;-37
2021/07/17 08:56:45;;;;;;;14.73;3.40;;;;;;;24.15;58.21;102600.59;4816597;29;20210;-37
2021/07/17 08:59:12;;;;;;;9.75;2.63;;;;;;;24.41;56.93;102602.63;4810481;29;20142;-37
2021/07/17 09:01:38;;;;;;;9.48;2.55;;;;;;;24.53;56.90;102597.56;4815632;29;20080;-37
2021/07/17 09:04:07;;;;;;;8.60;2.38;;;;;;;24.85;56.35;102609.53;4810684;29;20062;-37
2021/07/17 09:06:35;;;;;;;12.38;3.22;;;;;;;24.95;57.10;102602.97;4816335;29;20062;-37
2021/07/17 09:09:04;;;;;;;8.55;2.63;;;;;;;25.08;54.71;102599.53;4811391;29;20768;-37
2021/07/17 09:11:41;;;;;;;8.70;2.55;;;;;;;25.28;54.76;102600.44;4810164;29;20086;-37
2021/07/17 09:14:07;;;;;;;9.00;2.77;;;;;;;25.41;55.06;102597.81;4816459;29;20150;-37
2021/07/17 09:16:36;;;;;;;9.60;2.40;;;;;;;25.55;53.32;102592.47;4811839;29;20483;-37
2021/07/17 09:19:04;;;;;;;9.05;3.17;;;;;;;25.68;52.67;102597.88;4816174;29;20062;-37
2021/07/17 09:21:33;;;;;;;11.70;2.45;;;;;;;25.83;52.53;102598.50;4803657;29;20153;-37
2021/07/17 09:24:09;;;;;;;7.75;2.30;;;;;;;25.96;52.03;102594.19;4816094;29;20495;-37
2021/07/17 09:26:38;;;;;;;5.97;2.15;;;;;;;26.19;53.42;102591.91;4803461;29;20056;-38
2021/07/17 09:29:10;;;;;;;10.27;2.70;;;;;;;26.33;51.41;102587.34;4815247;29;20090;-37
2021/07/17 09:31:38;;;;;;;8.07;3.50;;;;;;;26.55;51.80;102590.63;4813681;29;20766;-37
2021/07/17 09:34:11;;;;;;;;;;;;;;;26.63;50.98;102592.28;4812116;29;20093;-37
2021/07/17 09:37:02;;;;;;;17.75;4.15;;;;;;;26.80;51.11;102593.47;4813189;29;20035;-37
2021/07/17 09:39:31;;;;;;;9.73;2.65;;;;;;;26.80;50.57;102595.34;4810413;29;20157;-37
2021/07/17 09:42:08;;;;;;;18.67;3.80;;;;;;;26.87;49.52;102598.81;4815564;29;20050;-37
2021/07/17 09:44:35;;;;;;;9.82;2.33;;;;;;;26.90;48.54;102594.91;4810741;29;20659;-38
2021/07/17 09:47:14;;;;;;;10.73;2.83;;;;;;;27.03;48.47;102586.75;4812478;29;20093;-38
2021/07/17 09:49:41;;;;;;;9.43;2.28;;;;;;;27.14;47.29;102587.94;4804450;29;20153;-38
2021/07/17 09:52:20;;;;;;;10.50;2.45;;;;;;;27.30;48.69;102590.16;4814543;29;20058;-38
2021/07/17 09:55:11;;;;;;;5.65;2.00;;;;;;;27.34;47.92;102593.25;4813036;29;20108;-38
2021/07/17 09:57:39;;;;;;;8.90;3.05;;;;;;;27.43;48.01;102578.50;4813059;29;20136;-38
2021/07/17 10:00:08;;;;;;;7.03;2.10;;;;;;;27.44;46.74;102582.00;4807767;29;20069;-38
2021/07/17 10:02:55;;;;;;;7.40;2.00;;;;;;;27.51;47.18;102580.94;4811003;29;20099;-38
2021/07/17 10:05:37;;;;;;;6.00;2.15;;;;;;;27.69;47.68;102579.34;4808629;29;20054;-38
2021/07/17 10:08:09;;;;;;;9.57;2.10;;;;;;;27.84;46.86;102577.16;4813730;29;20930;-38
2021/07/17 10:10:36;;;;;;;11.45;4.20;;;;;;;27.81;47.22;102575.75;4819787;29;20053;-38
2021/07/17 10:13:02;;;;;;;11.30;6.35;;;;;;;27.98;46.49;102569.81;4808220;29;20168;-38
2021/07/17 10:15:32;;;;;;;9.30;2.53;;;;;;;27.96;45.94;102577.31;4812879;29;20158;-38
2021/07/17 10:18:23;;;;;;;6.10;1.80;;;;;;;27.99;46.00;102575.00;4805085;29;20153;-38
2021/07/17 10:20:54;;;;;;;7.25;2.08;;;;;;;28.10;45.04;102572.63;4815176;29;20062;-38
2021/07/17 10:23:20;;;;;;;7.25;2.10;;;;;;;28.20;45.63;102572.94;4808692;29;20253;-38
2021/07/17 10:25:47;;;;;;;4.55;1.90;;;;;;;28.30;46.36;102565.16;4815115;29;20466;-38
2021/07/17 10:28:14;;;;;;;10.63;1.97;;;;;;;28.40;45.99;102573.56;4806645;29;20149;-38
2021/07/17 10:30:43;;;;;;;7.10;1.90;;;;;;;28.56;45.58;102566.78;4809385;29;20111;-38
2021/07/17 10:33:09;;;;;;;6.55;1.95;;;;;;;28.65;45.73;102569.19;4808103;29;20054;-38
2021/07/17 10:35:37;;;;;;;6.65;1.80;;;;;;;28.61;43.22;102563.41;4815301;29;20058;-38
2021/07/17 10:38:06;;;;;;;7.07;1.92;;;;;;;28.57;43.36;102559.50;4815527;29;20061;-38
2021/07/17 10:40:33;;;;;;;5.90;1.70;;;;;;;28.74;43.09;102562.44;4816287;29;20074;-38
2021/07/17 10:43:00;;;;;;;5.50;1.70;;;;;;;28.83;45.00;102566.44;4805060;29;20142;-38
2021/07/17 10:45:38;;;;;;;5.35;1.80;;;;;;;28.89;43.31;102562.88;4808615;29;20058;-38
2021/07/17 10:48:28;;;;;;;6.13;2.58;;;;;;;28.93;44.43;102563.22;4811160;29;20058;-38
2021/07/17 10:51:01;;;;;;;6.45;2.40;;;;;;;29.11;44.57;102562.34;4805907;29;20728;-38
2021/07/17 10:53:48;;;;;;;5.57;2.10;;;;;;;29.29;43.50;102564.22;4815239;29;20293;-37
2021/07/17 10:56:27;;;;;;;4.15;1.63;;;;;;;29.32;42.67;102566.44;4814289;29;20096;-37
2021/07/17 10:59:02;;;;;;;4.45;2.05;;;;;;;29.27;44.53;102566.34;4815046;29;20058;-37
2021/07/17 11:02:02;;;;;;;6.35;2.00;;;;;;;29.21;43.18;102562.66;4807429;29;20186;-37
2021/07/17 11:04:54;;;;;;;7.30;2.10;;;;;;;28.90;43.17;102566.38;4811392;29;20364;-36
2021/07/17 11:07:23;;;;;;;8.30;1.85;;;;;;;29.07;43.72;102566.56;4809280;29;20154;-36
2021/07/17 11:09:50;;;;;;;6.18;1.75;;;;;;;29.23;43.98;102570.56;4813137;29;20181;-36
2021/07/17 11:12:25;;;;;;;6.27;1.80;;;;;;;29.26;44.34;102572.78;4804506;29;20101;-37
2021/07/17 11:15:07;;;;;;;7.70;2.47;;;;;;;29.28;42.40;102566.09;4814414;29;20050;-36
2021/07/17 11:17:47;;;;;;;6.78;1.92;;;;;;;29.43;45.65;102554.03;4815068;29;20156;-36
2021/07/17 11:20:26;;;;;;;7.50;1.77;;;;;;;29.61;42.53;102567.47;4814491;29;20079;-36